createdAt,value
2019-02-14T00:00:48.530Z,1.10
2019-02-14T00:03:09.711Z,1.00
2019-02-14T00:05:30.935Z,1.00
2019-02-14T00:07:52.122Z,1.00
2019-02-14T00:10:13.330Z,1.00
2019-02-14T00:12:34.537Z,1.00
2019-02-14T00:14:55.834Z,1.00
2019-02-14T00:17:17.028Z,0.90
2019-02-14T00:19:38.228Z,0.80
2019-02-14T00:21:59.455Z,0.70
2019-02-14T00:24:20.655Z,0.70
2019-02-14T00:26:41.866Z,0.80
2019-02-14T00:29:03.164Z,0.70
2019-02-14T00:31:24.383Z,0.60
2019-02-14T00:33:45.663Z,0.60
2019-02-14T00:36:06.874Z,0.50
2019-02-14T00:38:28.050Z,0.60
2019-02-14T00:40:49.662Z,0.60
2019-02-14T00:43:10.869Z,0.60
2019-02-14T00:45:32.084Z,0.50
2019-02-14T00:47:53.409Z,0.40
2019-02-14T00:50:14.617Z,0.50
2019-02-14T00:52:35.825Z,0.50
2019-02-14T00:54:57.022Z,0.50
2019-02-14T00:57:18.314Z,0.50
2019-02-14T00:59:39.514Z,0.50
2019-02-14T01:02:00.732Z,0.50
2019-02-14T01:04:21.949Z,0.40
2019-02-14T01:06:43.158Z,0.30
2019-02-14T01:09:05.248Z,0.30
2019-02-14T01:11:27.065Z,0.30
2019-02-14T01:13:48.252Z,0.20
2019-02-14T01:16:09.529Z,0.20
2019-02-14T01:18:30.749Z,0.10
2019-02-14T01:20:51.928Z,0.10
2019-02-14T01:23:13.236Z,0.10
2019-02-14T01:25:34.425Z,0.20
2019-02-14T01:27:55.948Z,0.20
2019-02-14T01:30:17.137Z,0.20
2019-02-14T01:32:38.339Z,0.10
2019-02-14T01:34:59.552Z,0.10
2019-02-14T01:37:20.781Z,0.20
2019-02-14T01:39:41.973Z,0.10
2019-02-14T01:42:03.179Z,0.10
2019-02-14T01:44:24.368Z,0.20
2019-02-14T01:46:45.860Z,0.20
2019-02-14T01:49:07.082Z,0.30
2019-02-14T01:51:28.275Z,0.30
2019-02-14T01:53:49.487Z,0.30
2019-02-14T01:56:10.676Z,0.30
2019-02-14T01:58:31.884Z,0.30
2019-02-14T02:00:53.194Z,0.20
2019-02-14T02:03:14.507Z,0.10
2019-02-14T02:05:35.705Z,0.10
2019-02-14T02:07:56.996Z,0.00
2019-02-14T02:10:18.279Z,0.10
2019-02-14T02:12:39.561Z,0.00
2019-02-14T02:15:01.266Z,-0.10
2019-02-14T02:17:22.432Z,-0.10
2019-02-14T02:19:43.619Z,0.00
2019-02-14T02:22:04.815Z,-0.10
2019-02-14T02:24:26.014Z,-0.10
2019-02-14T02:26:47.185Z,-0.20
2019-02-14T02:29:08.370Z,-0.20
2019-02-14T02:31:29.824Z,-0.10
2019-02-14T02:33:51.012Z,-0.10
2019-02-14T02:36:12.218Z,0.00
2019-02-14T02:38:33.403Z,0.00
2019-02-14T02:40:54.580Z,0.10
2019-02-14T02:43:16.969Z,0.00
2019-02-14T02:45:38.133Z,0.00
2019-02-14T02:47:59.333Z,0.00
2019-02-14T02:50:20.643Z,-0.10
2019-02-14T02:52:41.828Z,0.00
2019-02-14T02:55:05.511Z,-0.20
2019-02-14T02:57:26.680Z,-0.10
2019-02-14T02:59:48.057Z,-0.10
2019-02-14T03:02:09.239Z,0.00
2019-02-14T03:04:30.418Z,0.00
2019-02-14T03:06:51.612Z,-0.10
2019-02-14T03:09:12.812Z,-0.10
2019-02-14T03:11:33.983Z,-0.10
2019-02-14T03:13:55.169Z,-0.20
2019-02-14T03:16:16.626Z,-0.20
2019-02-14T03:18:37.823Z,-0.30
2019-02-14T03:20:58.996Z,-0.30
2019-02-14T03:23:21.191Z,-0.30
2019-02-14T03:25:42.385Z,-0.30
2019-02-14T03:28:03.573Z,-0.20
2019-02-14T03:30:24.762Z,-0.30
2019-02-14T03:32:45.945Z,-0.30
2019-02-14T03:35:07.546Z,-0.30
2019-02-14T03:37:29.937Z,-0.40
2019-02-14T03:39:51.116Z,-0.30
2019-02-14T03:42:12.289Z,-0.40
2019-02-14T03:44:33.488Z,-0.30
2019-02-14T03:46:55.029Z,-0.30
2019-02-14T03:49:16.236Z,-0.30
2019-02-14T03:51:37.406Z,-0.40
2019-02-14T03:53:58.588Z,-0.30
2019-02-14T03:56:19.875Z,-0.30
2019-02-14T03:58:41.069Z,-0.30
2019-02-14T04:01:02.301Z,-0.20
2019-02-14T04:03:23.558Z,-0.20
2019-02-14T04:05:44.774Z,-0.20
2019-02-14T04:08:05.935Z,-0.20
2019-02-14T04:10:27.129Z,-0.30
2019-02-14T04:12:48.309Z,-0.30
2019-02-14T04:15:12.010Z,-0.40
2019-02-14T04:17:33.273Z,-0.40
2019-02-14T04:19:54.466Z,-0.50
2019-02-14T04:22:15.660Z,-0.50
2019-02-14T04:24:36.848Z,-0.60
2019-02-14T04:26:58.040Z,-0.50
2019-02-14T04:29:19.243Z,-0.40
2019-02-14T04:31:40.472Z,-0.40
2019-02-14T04:34:01.922Z,-0.40
2019-02-14T04:36:23.121Z,-0.50
2019-02-14T04:38:44.435Z,-0.50
2019-02-14T04:41:06.448Z,-0.50
2019-02-14T04:43:27.651Z,-0.50
2019-02-14T04:45:48.867Z,-0.50
2019-02-14T04:48:10.059Z,-0.50
2019-02-14T04:50:31.274Z,-0.50
2019-02-14T04:52:52.470Z,-0.50
2019-02-14T04:55:13.677Z,-0.60
2019-02-14T04:57:34.901Z,-0.80
2019-02-14T04:59:56.286Z,-0.80
2019-02-14T05:02:17.505Z,-0.80
2019-02-14T05:04:38.712Z,-0.90
2019-02-14T05:06:59.946Z,-0.90
2019-02-14T05:09:21.154Z,-0.90
2019-02-14T05:11:42.344Z,-0.90
2019-02-14T05:14:03.542Z,-0.90
2019-02-14T05:16:24.745Z,-1.00
2019-02-14T05:18:46.150Z,-1.00
2019-02-14T05:21:07.351Z,-1.10
2019-02-14T05:23:28.792Z,-0.90
2019-02-14T05:25:50.008Z,-0.90
2019-02-14T05:28:11.226Z,-0.90
2019-02-14T05:30:32.451Z,-0.90
2019-02-14T05:32:53.659Z,-1.00
2019-02-14T05:35:14.854Z,-1.10
2019-02-14T05:37:36.081Z,-1.00
2019-02-14T05:39:57.275Z,-0.90
2019-02-14T05:42:18.708Z,-0.90
2019-02-14T05:44:39.969Z,-1.00
2019-02-14T05:47:01.176Z,-1.00
2019-02-14T05:49:22.366Z,-1.10
2019-02-14T05:51:43.578Z,-1.10
2019-02-14T05:54:04.805Z,-1.20
2019-02-14T05:56:26.045Z,-1.10
2019-02-14T05:58:48.505Z,-1.10
2019-02-14T06:01:11.707Z,-1.00
2019-02-14T06:03:32.906Z,-1.00
2019-02-14T06:05:54.263Z,-0.90
2019-02-14T06:08:15.490Z,-0.90
2019-02-14T06:10:36.668Z,-1.00
2019-02-14T06:12:57.881Z,-0.90
2019-02-14T06:15:19.118Z,-1.00
2019-02-14T06:17:40.620Z,-1.00
2019-02-14T06:20:01.912Z,-1.10
2019-02-14T06:22:23.124Z,-1.10
2019-02-14T06:24:44.326Z,-1.20
2019-02-14T06:27:05.529Z,-1.20
2019-02-14T06:29:31.086Z,-1.20
2019-02-14T06:31:52.260Z,-1.30
2019-02-14T06:34:13.461Z,-1.10
2019-02-14T06:36:36.141Z,-1.10
2019-02-14T06:39:04.653Z,-1.00
2019-02-14T06:41:25.858Z,-1.00
2019-02-14T06:43:47.056Z,-1.00
2019-02-14T06:46:08.253Z,-1.00
2019-02-14T06:48:29.452Z,-1.10
2019-02-14T06:50:50.877Z,-1.10
2019-02-14T06:53:12.113Z,-1.10
2019-02-14T06:55:33.318Z,-1.10
2019-02-14T06:57:54.544Z,-1.00
2019-02-14T07:00:16.144Z,-1.00
2019-02-14T07:02:37.373Z,-0.90
2019-02-14T07:04:58.668Z,-1.00
2019-02-14T07:07:19.928Z,-1.00
2019-02-14T07:09:41.148Z,-0.90
2019-02-14T07:12:02.356Z,-0.90
2019-02-14T07:14:23.567Z,-0.80
2019-02-14T07:16:44.779Z,-0.80
2019-02-14T07:19:05.996Z,-0.80
2019-02-14T07:21:27.324Z,-0.70
2019-02-14T07:23:48.543Z,-0.80
2019-02-14T07:26:09.715Z,-0.60
2019-02-14T07:28:30.934Z,-0.60
2019-02-14T07:30:52.117Z,-0.50
2019-02-14T07:33:13.335Z,-0.50
2019-02-14T07:35:34.630Z,-0.50
2019-02-14T07:37:55.870Z,-0.40
2019-02-14T07:40:17.059Z,-0.40
2019-02-14T07:42:38.367Z,-0.30
2019-02-14T07:44:59.552Z,-0.30
2019-02-14T07:47:20.758Z,-0.30
2019-02-14T07:49:42.164Z,-0.40
2019-02-14T07:52:03.363Z,-0.40
2019-02-14T07:54:24.577Z,-0.30
2019-02-14T07:56:45.784Z,-0.30
2019-02-14T07:59:07.011Z,-0.20
2019-02-14T08:01:28.210Z,-0.10
2019-02-14T08:03:49.523Z,0.10
2019-02-14T08:06:10.712Z,0.10
2019-02-14T08:08:32.076Z,0.30
2019-02-14T08:10:53.373Z,0.30
2019-02-14T08:13:14.573Z,0.40
2019-02-14T08:15:35.761Z,0.50
2019-02-14T08:17:56.984Z,0.60
2019-02-14T08:20:39.949Z,0.70
2019-02-14T08:23:01.457Z,0.70
2019-02-14T08:25:22.642Z,0.70
2019-02-14T08:27:43.885Z,0.80
2019-02-14T08:30:10.758Z,0.80
2019-02-14T08:32:32.243Z,0.80
2019-02-14T08:34:53.443Z,0.80
2019-02-14T08:37:14.615Z,0.80
2019-02-14T08:39:35.819Z,0.90
2019-02-14T08:41:57.002Z,1.00
2019-02-14T08:44:18.497Z,1.10
2019-02-14T08:46:39.688Z,1.10
2019-02-14T08:49:00.907Z,1.20
2019-02-14T08:51:22.221Z,1.30
2019-02-14T08:53:43.417Z,1.30
2019-02-14T08:56:04.735Z,1.40
2019-02-14T08:58:26.452Z,1.40
2019-02-14T09:00:47.644Z,1.60
2019-02-14T09:03:09.924Z,1.60
2019-02-14T09:05:31.124Z,1.70
2019-02-14T09:07:54.976Z,1.80
2019-02-14T09:10:15.939Z,1.90
2019-02-14T09:12:37.137Z,1.90
2019-02-14T09:14:58.336Z,2.00
2019-02-14T09:17:19.554Z,2.00
2019-02-14T09:19:40.757Z,2.20
2019-02-14T09:22:01.960Z,2.20
2019-02-14T09:24:23.272Z,2.30
2019-02-14T09:26:44.455Z,2.30
2019-02-14T09:29:05.671Z,2.40
2019-02-14T09:31:26.865Z,2.50
2019-02-14T09:33:48.095Z,2.50
2019-02-14T09:36:09.272Z,2.60
2019-02-14T09:38:30.561Z,2.60
2019-02-14T09:40:51.833Z,2.70
2019-02-14T09:43:13.027Z,2.80
2019-02-14T09:45:34.217Z,2.90
2019-02-14T09:47:55.409Z,3.00
2019-02-14T09:50:16.612Z,3.00
2019-02-14T09:52:39.108Z,3.10
2019-02-14T09:55:00.353Z,3.20
2019-02-14T09:57:21.602Z,3.30
2019-02-14T09:59:42.846Z,3.40
2019-02-14T10:02:04.126Z,3.50
2019-02-14T10:04:25.417Z,3.60
2019-02-14T10:06:46.626Z,3.70
2019-02-14T10:09:07.918Z,3.80
2019-02-14T10:11:29.116Z,3.90
2019-02-14T10:13:50.517Z,4.00
2019-02-14T10:16:11.712Z,4.00
2019-02-14T10:18:33.017Z,4.00
2019-02-14T10:20:54.213Z,4.10
2019-02-14T10:23:15.416Z,4.10
2019-02-14T10:25:36.809Z,4.10
2019-02-14T10:27:57.991Z,4.20
2019-02-14T10:30:20.485Z,4.20
2019-02-14T10:32:43.179Z,4.40
2019-02-14T10:35:04.479Z,4.40
2019-02-14T10:37:25.669Z,4.50
2019-02-14T10:39:46.880Z,4.70
2019-02-14T10:42:08.108Z,4.70
2019-02-14T10:44:29.315Z,4.80
2019-02-14T10:46:50.488Z,4.90
2019-02-14T10:49:11.693Z,4.90
2019-02-14T10:51:32.882Z,5.10
2019-02-14T10:53:54.123Z,5.00
2019-02-14T10:56:15.695Z,5.10
2019-02-14T10:58:36.910Z,5.20
2019-02-14T11:00:58.205Z,5.30
2019-02-14T11:03:19.750Z,5.40
2019-02-14T11:05:41.267Z,5.50
2019-02-14T11:08:02.460Z,5.60
2019-02-14T11:10:23.768Z,5.60
2019-02-14T11:12:45.055Z,5.80
2019-02-14T11:15:28.140Z,5.80
2019-02-14T11:17:49.372Z,6.00
2019-02-14T11:20:12.651Z,6.00
2019-02-14T11:22:33.846Z,6.00
2019-02-14T11:24:55.107Z,6.10
2019-02-14T11:27:16.296Z,6.20
2019-02-14T11:29:37.498Z,6.30
2019-02-14T11:31:58.673Z,6.30
2019-02-14T11:34:19.879Z,6.30
2019-02-14T11:36:41.364Z,6.40
2019-02-14T11:39:06.449Z,6.50
2019-02-14T11:41:27.639Z,6.50
2019-02-14T11:43:48.839Z,6.60
2019-02-14T11:46:10.016Z,6.70
2019-02-14T11:48:31.205Z,6.80
2019-02-14T11:50:52.418Z,6.90
2019-02-14T11:53:14.283Z,7.00
2019-02-14T11:55:36.019Z,7.10
2019-02-14T11:57:57.208Z,7.30
2019-02-14T12:00:20.969Z,7.40
2019-02-14T12:02:42.177Z,7.50
2019-02-14T12:05:03.565Z,7.60
2019-02-14T12:07:24.934Z,7.70
2019-02-14T12:09:46.212Z,7.90
2019-02-14T12:12:07.404Z,8.00
2019-02-14T12:14:28.700Z,8.10
2019-02-14T12:16:49.881Z,8.20
2019-02-14T12:19:11.085Z,8.30
2019-02-14T12:21:32.461Z,8.50
2019-02-14T12:23:53.666Z,8.60
2019-02-14T12:26:16.259Z,8.60
2019-02-14T12:28:37.534Z,8.70
2019-02-14T12:30:58.743Z,8.90
2019-02-14T12:33:19.933Z,8.90
2019-02-14T12:35:41.276Z,8.80
2019-02-14T12:38:02.490Z,8.70
2019-02-14T12:40:23.693Z,8.80
2019-02-14T12:42:45.482Z,8.80
2019-02-14T12:45:20.461Z,8.80
2019-02-14T12:47:41.936Z,9.00
2019-02-14T12:50:06.732Z,9.00
2019-02-14T12:52:27.932Z,9.00
2019-02-14T12:54:49.116Z,9.00
2019-02-14T12:57:10.311Z,9.00
2019-02-14T12:59:31.510Z,8.90
2019-02-14T13:01:53.214Z,8.90
2019-02-14T13:04:14.536Z,8.80
2019-02-14T13:06:35.747Z,8.90
2019-02-14T13:08:56.968Z,8.80
2019-02-14T13:11:18.212Z,8.90
2019-02-14T13:13:41.072Z,9.00
2019-02-14T13:16:02.366Z,9.10
2019-02-14T13:18:23.580Z,9.20
2019-02-14T13:20:46.733Z,9.20
2019-02-14T13:23:07.906Z,9.40
2019-02-14T13:25:29.124Z,9.30
2019-02-14T13:27:50.341Z,9.40
2019-02-14T13:30:17.677Z,9.50
2019-02-14T13:32:39.052Z,9.50
2019-02-14T13:35:00.751Z,9.60
2019-02-14T13:37:22.021Z,9.70
2019-02-14T13:39:43.274Z,9.80
2019-02-14T13:42:04.467Z,9.90
2019-02-14T13:44:25.756Z,10.00
2019-02-14T13:46:46.951Z,10.10
2019-02-14T13:49:08.162Z,10.10
2019-02-14T13:51:29.382Z,10.20
2019-02-14T13:53:50.568Z,10.30
2019-02-14T13:56:11.772Z,10.30
2019-02-14T13:58:32.953Z,10.30
2019-02-14T14:00:54.151Z,10.40
2019-02-14T14:03:15.335Z,10.50
2019-02-14T14:05:36.632Z,10.60
2019-02-14T14:07:57.814Z,10.60
2019-02-14T14:10:19.246Z,10.50
2019-02-14T14:12:42.203Z,10.50
2019-02-14T14:15:06.583Z,10.50
2019-02-14T14:17:27.787Z,10.50
2019-02-14T14:19:49.116Z,10.40
2019-02-14T14:22:10.479Z,10.40
2019-02-14T14:24:32.057Z,10.40
2019-02-14T14:26:53.431Z,10.30
2019-02-14T14:29:14.608Z,10.20
2019-02-14T14:31:35.812Z,10.20
2019-02-14T14:33:57.318Z,10.20
2019-02-14T14:36:18.532Z,10.10
2019-02-14T14:38:39.714Z,10.10
2019-02-14T14:41:00.939Z,10.10
2019-02-14T14:43:26.635Z,10.10
2019-02-14T14:46:04.856Z,10.00
2019-02-14T14:48:27.425Z,10.00
2019-02-14T14:50:48.634Z,10.00
2019-02-14T14:53:10.138Z,10.00
2019-02-14T14:55:31.329Z,9.90
2019-02-14T14:57:52.529Z,9.90
2019-02-14T15:00:13.940Z,9.90
2019-02-14T15:02:36.437Z,9.90
2019-02-14T15:04:57.933Z,9.80
2019-02-14T15:07:19.281Z,9.90
2019-02-14T15:09:40.473Z,9.80
2019-02-14T15:12:01.709Z,9.80
2019-02-14T15:14:22.893Z,9.80
2019-02-14T15:16:44.098Z,9.80
2019-02-14T15:19:05.607Z,9.70
2019-02-14T15:21:27.977Z,9.70
2019-02-14T15:23:49.292Z,9.70
2019-02-14T15:26:10.478Z,9.70
2019-02-14T15:28:31.680Z,9.70
2019-02-14T15:30:53.117Z,9.70
2019-02-14T15:33:14.392Z,9.70
2019-02-14T15:35:35.581Z,9.80
2019-02-14T15:37:56.842Z,9.70
2019-02-14T15:40:18.044Z,9.70
2019-02-14T15:42:39.381Z,9.60
2019-02-14T15:45:00.601Z,9.60
2019-02-14T15:47:21.800Z,9.50
2019-02-14T15:49:44.625Z,9.50
2019-02-14T15:52:07.748Z,9.40
2019-02-14T15:54:30.939Z,9.40
2019-02-14T15:56:53.643Z,9.30
2019-02-14T15:59:16.851Z,9.30
2019-02-14T16:01:39.678Z,9.20
2019-02-14T16:04:02.510Z,9.10
2019-02-14T16:06:26.067Z,9.00
2019-02-14T16:08:48.885Z,9.00
2019-02-14T16:11:11.915Z,8.90
2019-02-14T16:13:33.730Z,8.70
2019-02-14T16:15:58.256Z,8.70
2019-02-14T16:18:18.377Z,8.60
2019-02-14T16:20:40.449Z,8.60
2019-02-14T16:23:04.168Z,8.50
2019-02-14T16:25:27.664Z,8.40
2019-02-14T16:27:50.563Z,8.30
2019-02-14T16:30:12.137Z,8.30
2019-02-14T16:32:33.317Z,8.20
2019-02-14T16:34:54.509Z,8.10
2019-02-14T16:37:15.753Z,8.00
2019-02-14T16:39:37.043Z,7.90
2019-02-14T16:41:58.240Z,7.80
2019-02-14T16:44:19.449Z,7.70
2019-02-14T16:46:40.633Z,7.60
2019-02-14T16:49:01.830Z,7.60
2019-02-14T16:51:23.024Z,7.40
2019-02-14T16:53:47.187Z,7.30
2019-02-14T16:56:08.377Z,7.20
2019-02-14T16:58:29.579Z,7.20
2019-02-14T17:00:50.772Z,7.10
2019-02-14T17:03:11.980Z,6.90
2019-02-14T17:05:33.172Z,6.80
2019-02-14T17:07:56.046Z,6.80
2019-02-14T17:10:17.480Z,6.80
2019-02-14T17:12:38.721Z,6.70
2019-02-14T17:14:59.932Z,6.50
2019-02-14T17:17:27.683Z,6.50
2019-02-14T17:19:44.249Z,6.40
2019-02-14T17:22:05.440Z,6.40
2019-02-14T17:24:31.421Z,6.30
2019-02-14T17:26:52.607Z,6.30
2019-02-14T17:29:13.808Z,6.20
2019-02-14T17:31:35.284Z,6.10
2019-02-14T17:33:56.521Z,6.00
2019-02-14T17:36:17.705Z,5.90
2019-02-14T17:38:38.939Z,5.80
2019-02-14T17:41:00.242Z,5.60
2019-02-14T17:43:21.458Z,5.60
2019-02-14T17:45:42.657Z,5.50
2019-02-14T17:48:03.864Z,5.30
2019-02-14T17:50:25.144Z,5.30
2019-02-14T17:52:46.456Z,5.40
2019-02-14T17:55:08.627Z,5.30
2019-02-14T17:57:29.817Z,5.20
2019-02-14T17:59:51.041Z,5.30
2019-02-14T18:02:12.744Z,5.10
2019-02-14T18:04:33.959Z,5.00
2019-02-14T18:06:55.185Z,4.90
2019-02-14T18:09:16.395Z,4.90
2019-02-14T18:11:37.606Z,4.90
2019-02-14T18:13:58.815Z,4.90
2019-02-14T18:16:19.996Z,4.90
2019-02-14T18:18:41.213Z,4.90
2019-02-14T18:21:02.668Z,4.90
2019-02-14T18:23:23.993Z,4.90
2019-02-14T18:25:45.206Z,4.90
2019-02-14T18:28:07.609Z,4.90
2019-02-14T18:30:28.822Z,4.80
2019-02-14T18:32:50.006Z,4.70
2019-02-14T18:35:11.226Z,4.70
2019-02-14T18:37:32.504Z,4.70
2019-02-14T18:39:53.746Z,4.70
2019-02-14T18:42:14.959Z,4.70
2019-02-14T18:44:36.500Z,4.60
2019-02-14T18:46:57.692Z,4.60
2019-02-14T18:49:18.877Z,4.70
2019-02-14T18:51:40.137Z,4.60
2019-02-14T18:54:01.313Z,4.70
2019-02-14T18:56:23.622Z,4.70
2019-02-14T18:58:44.813Z,4.60
2019-02-14T19:01:06.041Z,4.60
2019-02-14T19:03:27.508Z,4.60
2019-02-14T19:05:49.049Z,4.60
2019-02-14T19:08:10.250Z,4.40
2019-02-14T19:10:31.492Z,4.40
2019-02-14T19:12:53.962Z,4.30
2019-02-14T19:15:15.210Z,4.30
2019-02-14T19:17:36.410Z,4.20
2019-02-14T19:19:57.823Z,4.20
2019-02-14T19:22:19.023Z,4.00
2019-02-14T19:24:40.216Z,4.10
2019-02-14T19:27:01.615Z,4.10
2019-02-14T19:29:22.888Z,4.10
2019-02-14T19:31:44.097Z,4.00
2019-02-14T19:34:05.338Z,3.90
2019-02-14T19:36:26.561Z,3.70
2019-02-14T19:38:47.761Z,3.60
2019-02-14T19:41:09.144Z,3.50
2019-02-14T19:43:30.339Z,3.40
2019-02-14T19:45:51.565Z,3.40
2019-02-14T19:48:19.433Z,3.40
2019-02-14T19:50:40.642Z,3.40
2019-02-14T19:53:01.845Z,3.30
2019-02-14T19:55:23.040Z,3.20
2019-02-14T19:57:44.233Z,3.20
2019-02-14T20:00:14.677Z,3.10
2019-02-14T20:02:35.864Z,3.20
2019-02-14T20:04:57.237Z,3.20
2019-02-14T20:07:18.440Z,3.20
2019-02-14T20:09:41.565Z,3.20
2019-02-14T20:12:04.606Z,3.20
2019-02-14T20:14:25.803Z,3.20
2019-02-14T20:16:47.101Z,3.10
2019-02-14T20:19:08.299Z,3.10
2019-02-14T20:21:29.496Z,3.10
2019-02-14T20:23:50.712Z,3.20
2019-02-14T20:26:11.912Z,3.10
2019-02-14T20:28:33.168Z,3.20
2019-02-14T20:30:54.485Z,3.10
2019-02-14T20:33:15.693Z,3.10
2019-02-14T20:35:36.918Z,3.00
2019-02-14T20:37:58.117Z,3.10
2019-02-14T20:40:19.291Z,3.00
2019-02-14T20:42:40.629Z,2.90
2019-02-14T20:45:02.622Z,3.00
2019-02-14T20:47:23.851Z,3.00
2019-02-14T20:49:45.137Z,2.90
2019-02-14T20:52:06.412Z,2.90
2019-02-14T20:54:27.702Z,2.90
2019-02-14T20:56:48.958Z,2.90
2019-02-14T20:59:10.148Z,2.90
2019-02-14T21:01:31.349Z,2.80
2019-02-14T21:03:52.556Z,2.70
2019-02-14T21:06:14.857Z,2.70
2019-02-14T21:08:36.068Z,2.70
2019-02-14T21:10:57.272Z,2.70
2019-02-14T21:13:19.591Z,2.70
2019-02-14T21:15:40.780Z,2.60
2019-02-14T21:18:02.133Z,2.70
2019-02-14T21:20:23.384Z,2.60
2019-02-14T21:22:44.615Z,2.60
2019-02-14T21:25:07.294Z,2.50
2019-02-14T21:27:28.482Z,2.50
2019-02-14T21:29:49.747Z,2.50
2019-02-14T21:32:10.993Z,2.60
2019-02-14T21:34:32.203Z,2.60
2019-02-14T21:36:53.456Z,2.60
2019-02-14T21:39:14.666Z,2.60
2019-02-14T21:41:35.942Z,2.60
2019-02-14T21:43:57.426Z,2.40
2019-02-14T21:46:18.712Z,2.40
2019-02-14T21:48:40.013Z,2.30
2019-02-14T21:51:02.587Z,2.20
2019-02-14T21:53:23.916Z,2.20
2019-02-14T21:55:45.499Z,2.10
2019-02-14T21:58:06.835Z,2.10
2019-02-14T22:00:28.184Z,2.10
2019-02-14T22:02:49.480Z,2.00
2019-02-14T22:05:10.803Z,2.00
2019-02-14T22:07:34.886Z,2.00
2019-02-14T22:09:55.242Z,2.00
2019-02-14T22:12:16.464Z,2.00
2019-02-14T22:14:37.955Z,2.00
2019-02-14T22:16:59.162Z,2.00
2019-02-14T22:19:20.460Z,2.00
2019-02-14T22:21:42.084Z,2.00
2019-02-14T22:24:03.299Z,2.00
2019-02-14T22:26:25.484Z,2.00
2019-02-14T22:29:02.588Z,2.00
2019-02-14T22:31:24.808Z,2.00
2019-02-14T22:33:47.749Z,2.00
2019-02-14T22:36:09.469Z,2.10
2019-02-14T22:38:30.988Z,2.20
2019-02-14T22:40:52.890Z,2.20
2019-02-14T22:43:14.801Z,2.10
2019-02-14T22:45:36.073Z,2.10
2019-02-14T22:47:57.269Z,2.10
2019-02-14T22:50:18.478Z,2.00
2019-02-14T22:52:39.814Z,2.00
2019-02-14T22:55:01.151Z,2.10
2019-02-14T22:57:22.347Z,2.10
2019-02-14T22:59:43.560Z,2.00
2019-02-14T23:02:05.911Z,2.00
2019-02-14T23:04:27.246Z,2.00
2019-02-14T23:06:48.566Z,2.10
2019-02-14T23:09:13.502Z,2.20
2019-02-14T23:11:38.052Z,2.20
2019-02-14T23:14:00.180Z,2.10
2019-02-14T23:16:21.786Z,2.10
2019-02-14T23:18:42.988Z,2.00
2019-02-14T23:21:05.591Z,2.00
2019-02-14T23:23:29.118Z,2.10
2019-02-14T23:25:53.463Z,2.00
2019-02-14T23:28:14.722Z,2.00
2019-02-14T23:30:35.926Z,2.00
2019-02-14T23:32:57.120Z,2.00
2019-02-14T23:35:18.331Z,2.00
2019-02-14T23:37:39.521Z,1.90
2019-02-14T23:40:00.852Z,1.90
2019-02-14T23:42:22.035Z,2.00
2019-02-14T23:44:43.235Z,2.10
2019-02-14T23:47:04.750Z,2.20
2019-02-14T23:49:26.285Z,2.30
2019-02-14T23:51:47.701Z,2.40
2019-02-14T23:54:09.782Z,2.50
2019-02-14T23:56:31.155Z,2.30
2019-02-14T23:58:52.378Z,2.30
